createdAt,value
2018-07-02T00:01:05.045Z,20.30
2018-07-02T00:06:12.626Z,20.30
2018-07-02T00:08:40.791Z,20.30
2018-07-02T00:11:08.953Z,20.20
2018-07-02T00:13:37.110Z,20.20
2018-07-02T00:16:05.267Z,20.20
2018-07-02T00:18:33.416Z,20.10
2018-07-02T00:21:02.126Z,20.10
2018-07-02T00:23:30.286Z,20.00
2018-07-02T00:25:58.433Z,20.00
2018-07-02T00:28:26.607Z,20.00
2018-07-02T00:30:54.756Z,19.90
2018-07-02T00:33:22.898Z,19.90
2018-07-02T00:35:51.060Z,19.80
2018-07-02T00:38:19.200Z,19.80
2018-07-02T00:40:47.381Z,19.80
2018-07-02T00:43:15.528Z,19.70
2018-07-02T00:45:43.686Z,19.70
2018-07-02T00:48:11.836Z,19.80
2018-07-02T00:50:39.996Z,19.70
2018-07-02T00:53:08.140Z,19.70
2018-07-02T00:55:36.323Z,19.70
2018-07-02T00:58:04.475Z,19.60
2018-07-02T01:00:32.630Z,19.60
2018-07-02T01:03:00.781Z,19.50
2018-07-02T01:05:28.941Z,19.50
2018-07-02T01:07:57.082Z,19.50
2018-07-02T01:10:25.251Z,19.50
2018-07-02T01:12:53.404Z,19.50
2018-07-02T01:15:21.585Z,19.50
2018-07-02T01:17:49.734Z,19.50
2018-07-02T01:20:17.941Z,19.50
2018-07-02T01:22:46.089Z,19.50
2018-07-02T01:25:14.232Z,19.50
2018-07-02T01:27:42.378Z,19.50
2018-07-02T01:30:10.542Z,19.50
2018-07-02T01:32:38.680Z,19.50
2018-07-02T01:35:06.850Z,19.40
2018-07-02T01:37:35.013Z,19.40
2018-07-02T01:40:03.255Z,19.40
2018-07-02T01:42:31.436Z,19.40
2018-07-02T01:44:59.581Z,19.40
2018-07-02T01:47:27.760Z,19.40
2018-07-02T01:49:55.904Z,19.40
2018-07-02T01:52:24.085Z,19.40
2018-07-02T01:54:52.238Z,19.30
2018-07-02T01:57:20.405Z,19.30
2018-07-02T01:59:48.587Z,19.30
2018-07-02T02:02:16.740Z,19.20
2018-07-02T02:04:44.888Z,19.20
2018-07-02T02:07:13.053Z,19.20
2018-07-02T02:12:09.144Z,19.10
2018-07-02T02:14:37.294Z,19.00
2018-07-02T02:17:05.685Z,19.00
2018-07-02T02:19:33.832Z,19.00
2018-07-02T02:22:01.990Z,19.00
2018-07-02T02:24:30.149Z,18.90
2018-07-02T02:26:58.382Z,18.90
2018-07-02T02:29:26.536Z,18.80
2018-07-02T02:31:54.697Z,18.80
2018-07-02T02:34:23.027Z,18.70
2018-07-02T02:36:51.186Z,18.70
2018-07-02T02:39:19.349Z,18.70
2018-07-02T02:41:47.513Z,18.60
2018-07-02T02:44:15.805Z,18.60
2018-07-02T02:46:43.973Z,18.50
2018-07-02T02:49:12.134Z,18.50
2018-07-02T02:51:40.278Z,18.50
2018-07-02T02:54:08.429Z,18.40
2018-07-02T02:56:36.598Z,18.40
2018-07-02T02:59:04.806Z,18.30
2018-07-02T03:01:32.980Z,18.30
2018-07-02T03:04:01.135Z,18.30
2018-07-02T03:06:29.321Z,18.20
2018-07-02T03:08:57.525Z,18.20
2018-07-02T03:11:25.665Z,18.10
2018-07-02T03:13:53.824Z,18.10
2018-07-02T03:16:22.076Z,18.10
2018-07-02T03:18:50.234Z,18.10
2018-07-02T03:21:18.402Z,18.00
2018-07-02T03:23:46.570Z,18.00
2018-07-02T03:26:14.720Z,18.00
2018-07-02T03:28:42.882Z,18.00
2018-07-02T03:31:11.025Z,17.90
2018-07-02T03:33:39.198Z,17.90
2018-07-02T03:36:07.353Z,17.90
2018-07-02T03:38:35.519Z,17.90
2018-07-02T03:41:03.677Z,17.90
2018-07-02T03:43:31.828Z,17.90
2018-07-02T03:46:00.293Z,17.80
2018-07-02T03:48:28.507Z,17.80
2018-07-02T03:50:56.663Z,17.80
2018-07-02T03:53:24.866Z,17.80
2018-07-02T03:55:53.050Z,17.70
2018-07-02T03:58:21.204Z,17.70
2018-07-02T04:00:49.355Z,17.70
2018-07-02T04:03:17.748Z,17.70
2018-07-02T04:05:45.895Z,17.70
2018-07-02T04:08:14.033Z,17.70
2018-07-02T04:10:42.206Z,17.60
2018-07-02T04:13:10.398Z,17.60
2018-07-02T04:15:38.602Z,17.60
2018-07-02T04:18:06.757Z,17.60
2018-07-02T04:20:34.905Z,17.50
2018-07-02T04:23:03.079Z,17.60
2018-07-02T04:25:31.234Z,17.60
2018-07-02T04:27:59.438Z,17.60
2018-07-02T04:30:27.611Z,17.60
2018-07-02T04:32:55.758Z,17.60
2018-07-02T04:35:23.913Z,17.60
2018-07-02T04:37:52.045Z,17.60
2018-07-02T04:40:20.219Z,17.50
2018-07-02T04:42:48.349Z,17.60
2018-07-02T04:45:16.577Z,17.60
2018-07-02T04:47:46.767Z,17.60
2018-07-02T04:50:12.936Z,17.60
2018-07-02T04:52:41.128Z,17.60
2018-07-02T04:55:09.322Z,17.70
2018-07-02T04:57:37.494Z,17.70
2018-07-02T05:00:05.906Z,17.70
2018-07-02T05:02:34.141Z,17.80
2018-07-02T05:05:02.318Z,17.80
2018-07-02T05:07:30.505Z,17.80
2018-07-02T05:09:58.677Z,17.80
2018-07-02T05:12:26.846Z,17.90
2018-07-02T05:14:55.073Z,17.90
2018-07-02T05:17:23.252Z,18.00
2018-07-02T05:19:51.430Z,18.00
2018-07-02T05:22:19.594Z,18.10
2018-07-02T05:24:47.761Z,18.10
2018-07-02T05:27:15.965Z,18.20
2018-07-02T05:29:44.138Z,18.20
2018-07-02T05:32:12.304Z,18.20
2018-07-02T05:34:40.448Z,18.30
2018-07-02T05:37:08.629Z,18.30
2018-07-02T05:39:36.803Z,18.40
2018-07-02T05:42:04.967Z,18.40
2018-07-02T05:44:33.154Z,18.50
2018-07-02T05:47:01.366Z,18.50
2018-07-02T05:49:29.498Z,18.50
2018-07-02T05:51:57.670Z,18.60
2018-07-02T05:56:53.754Z,18.70
2018-07-02T05:59:21.956Z,18.70
2018-07-02T06:01:50.137Z,18.80
2018-07-02T06:04:18.296Z,18.80
2018-07-02T06:06:46.473Z,18.90
2018-07-02T06:09:14.617Z,18.90
2018-07-02T06:11:42.773Z,18.90
2018-07-02T06:14:11.702Z,18.90
2018-07-02T06:16:39.961Z,18.90
2018-07-02T06:19:08.426Z,19.00
2018-07-02T06:21:36.581Z,19.00
2018-07-02T06:24:04.831Z,19.10
2018-07-02T06:26:32.966Z,19.10
2018-07-02T06:29:01.113Z,19.20
2018-07-02T06:31:29.318Z,19.20
2018-07-02T06:33:57.476Z,19.30
2018-07-02T06:36:25.642Z,19.30
2018-07-02T06:38:53.789Z,19.40
2018-07-02T06:41:21.949Z,19.40
2018-07-02T06:43:50.102Z,19.50
2018-07-02T06:46:18.249Z,19.50
2018-07-02T06:48:46.413Z,19.60
2018-07-02T06:51:14.553Z,19.80
2018-07-02T06:53:42.706Z,19.90
2018-07-02T06:56:10.854Z,19.90
2018-07-02T06:58:39.142Z,20.00
2018-07-02T07:03:35.169Z,20.10
2018-07-02T07:06:03.311Z,20.20
2018-07-02T07:08:31.586Z,20.30
2018-07-02T07:10:59.635Z,20.30
2018-07-02T07:13:27.796Z,20.40
2018-07-02T07:15:55.946Z,20.40
2018-07-02T07:18:24.113Z,20.50
2018-07-02T07:20:52.358Z,20.60
2018-07-02T07:23:20.509Z,20.70
2018-07-02T07:25:48.689Z,20.70
2018-07-02T07:28:16.802Z,20.80
2018-07-02T07:30:45.069Z,20.80
2018-07-02T07:33:13.242Z,20.80
2018-07-02T07:35:41.409Z,20.90
2018-07-02T07:38:09.576Z,21.00
2018-07-02T07:40:37.742Z,21.10
2018-07-02T07:43:05.897Z,21.10
2018-07-02T07:45:34.081Z,21.30
2018-07-02T07:48:02.261Z,21.40
2018-07-02T07:50:30.426Z,21.50
2018-07-02T07:52:58.590Z,21.50
2018-07-02T07:55:26.765Z,21.60
2018-07-02T07:57:54.934Z,21.70
2018-07-02T08:00:23.080Z,21.80
2018-07-02T08:02:51.248Z,21.90
2018-07-02T08:05:19.494Z,21.90
2018-07-02T08:07:47.663Z,22.00
2018-07-02T08:10:15.824Z,22.10
2018-07-02T08:12:44.202Z,22.10
2018-07-02T08:15:12.365Z,22.20
2018-07-02T08:17:40.549Z,22.20
2018-07-02T08:20:08.749Z,22.30
2018-07-02T08:22:36.981Z,22.30
2018-07-02T08:27:33.065Z,22.50
2018-07-02T08:30:01.239Z,22.50
2018-07-02T08:32:29.400Z,22.60
2018-07-02T08:34:57.571Z,22.60
2018-07-02T08:37:25.818Z,22.60
2018-07-02T08:39:54.001Z,22.70
2018-07-02T08:42:22.221Z,22.70
2018-07-02T08:44:51.007Z,22.80
2018-07-02T08:47:19.281Z,22.90
2018-07-02T08:49:48.002Z,22.90
2018-07-02T08:52:16.237Z,23.00
2018-07-02T08:54:44.557Z,23.00
2018-07-02T08:57:12.720Z,23.10
2018-07-02T08:59:40.900Z,23.10
2018-07-02T09:02:09.083Z,23.10
2018-07-02T09:04:37.362Z,23.20
2018-07-02T09:07:05.585Z,23.30
2018-07-02T09:09:33.759Z,23.30
2018-07-02T09:12:01.941Z,23.40
2018-07-02T09:14:30.116Z,23.50
2018-07-02T09:16:58.345Z,23.50
2018-07-02T09:19:26.513Z,23.60
2018-07-02T09:21:54.697Z,23.70
2018-07-02T09:24:22.870Z,23.80
2018-07-02T09:26:51.206Z,23.80
2018-07-02T09:29:19.233Z,23.90
2018-07-02T09:31:47.388Z,23.90
2018-07-02T09:34:15.546Z,24.00
2018-07-02T09:36:44.775Z,24.00
2018-07-02T09:39:13.591Z,24.10
2018-07-02T09:41:41.741Z,24.10
2018-07-02T09:44:09.925Z,24.10
2018-07-02T09:46:38.465Z,24.20
2018-07-02T09:49:06.637Z,24.20
2018-07-02T09:51:34.906Z,24.20
2018-07-02T09:54:03.146Z,24.30
2018-07-02T09:56:32.034Z,24.40
2018-07-02T09:59:00.197Z,24.40
2018-07-02T10:01:28.359Z,24.40
2018-07-02T10:03:56.533Z,24.50
2018-07-02T10:06:24.792Z,24.50
2018-07-02T10:08:52.910Z,24.50
2018-07-02T10:11:21.101Z,24.50
2018-07-02T10:13:49.290Z,24.50
2018-07-02T10:16:17.472Z,24.60
2018-07-02T10:21:13.625Z,24.70
2018-07-02T10:23:41.859Z,24.70
2018-07-02T10:26:09.954Z,24.80
2018-07-02T10:28:38.122Z,24.90
2018-07-02T10:31:06.567Z,24.90
2018-07-02T10:33:34.733Z,25.00
2018-07-02T10:36:02.894Z,25.00
2018-07-02T10:38:31.079Z,25.00
2018-07-02T10:40:59.249Z,25.10
2018-07-02T10:43:27.416Z,25.10
2018-07-02T10:45:55.557Z,25.10
2018-07-02T10:48:23.722Z,25.10
2018-07-02T10:50:51.889Z,25.10
2018-07-02T10:53:20.058Z,25.10
2018-07-02T10:55:48.235Z,25.20
2018-07-02T10:58:16.418Z,25.20
2018-07-02T11:00:44.642Z,25.20
2018-07-02T11:03:12.807Z,25.30
2018-07-02T11:05:40.988Z,25.40
2018-07-02T11:08:09.177Z,25.40
2018-07-02T11:10:41.006Z,25.50
2018-07-02T11:13:10.796Z,25.50
2018-07-02T11:15:39.769Z,25.50
2018-07-02T11:18:08.278Z,25.50
2018-07-02T11:20:37.042Z,25.50
2018-07-02T11:23:05.197Z,25.60
2018-07-02T11:25:33.530Z,25.50
2018-07-02T11:28:02.497Z,25.60
2018-07-02T11:30:30.725Z,25.60
2018-07-02T11:32:58.873Z,25.70
2018-07-02T11:35:27.028Z,25.70
2018-07-02T11:37:55.257Z,25.80
2018-07-02T11:40:23.432Z,25.90
2018-07-02T11:42:51.633Z,25.90
2018-07-02T11:45:19.803Z,25.90
2018-07-02T11:47:48.186Z,25.90
2018-07-02T11:50:16.352Z,25.90
2018-07-02T11:52:44.814Z,26.00
2018-07-02T11:55:13.033Z,26.00
2018-07-02T11:57:41.198Z,26.00
2018-07-02T12:00:09.936Z,25.90
2018-07-02T12:02:38.302Z,25.90
2018-07-02T12:05:06.489Z,26.00
2018-07-02T12:07:34.639Z,26.00
2018-07-02T12:10:03.413Z,26.00
2018-07-02T12:12:32.215Z,26.00
2018-07-02T12:15:00.406Z,26.00
2018-07-02T12:17:28.842Z,26.00
2018-07-02T12:19:57.069Z,26.00
2018-07-02T12:22:25.223Z,26.00
2018-07-02T12:24:53.541Z,26.00
2018-07-02T12:27:21.721Z,26.00
2018-07-02T12:29:49.884Z,26.00
2018-07-02T12:32:18.025Z,26.00
2018-07-02T12:34:46.225Z,26.00
2018-07-02T12:37:14.377Z,26.10
2018-07-02T12:39:42.545Z,26.10
2018-07-02T12:42:10.790Z,26.10
2018-07-02T12:44:38.937Z,26.10
2018-07-02T12:47:07.090Z,26.10
2018-07-02T12:49:35.244Z,26.10
2018-07-02T12:52:03.405Z,26.20
2018-07-02T12:54:31.590Z,26.20
2018-07-02T12:56:59.745Z,26.30
2018-07-02T12:59:27.889Z,26.30
2018-07-02T13:01:56.057Z,26.30
2018-07-02T13:04:24.207Z,26.30
2018-07-02T13:06:52.386Z,26.40
2018-07-02T13:09:20.552Z,26.40
2018-07-02T13:11:48.725Z,26.40
2018-07-02T13:14:16.922Z,26.40
2018-07-02T13:16:45.076Z,26.40
2018-07-02T13:19:13.233Z,26.40
2018-07-02T13:21:41.458Z,26.40
2018-07-02T13:24:09.621Z,26.30
2018-07-02T13:26:37.782Z,26.30
2018-07-02T13:29:05.955Z,26.30
2018-07-02T13:31:34.120Z,26.30
2018-07-02T13:34:02.277Z,26.30
2018-07-02T13:36:30.506Z,26.30
2018-07-02T13:38:58.662Z,26.30
2018-07-02T13:41:26.882Z,26.30
2018-07-02T13:43:55.064Z,26.30
2018-07-02T13:46:23.262Z,26.30
2018-07-02T13:48:51.566Z,26.30
2018-07-02T13:51:20.527Z,26.20
2018-07-02T13:53:48.767Z,26.20
2018-07-02T13:56:16.929Z,26.20
2018-07-02T13:58:45.082Z,26.20
2018-07-02T14:01:13.241Z,26.20
2018-07-02T14:03:41.394Z,26.30
2018-07-02T14:06:09.555Z,26.30
2018-07-02T14:08:37.717Z,26.40
2018-07-02T14:11:05.914Z,26.40
2018-07-02T14:13:34.078Z,26.50
2018-07-02T14:16:02.227Z,26.50
2018-07-02T14:18:30.380Z,26.50
2018-07-02T14:20:58.941Z,26.50
2018-07-02T14:23:27.108Z,26.50
2018-07-02T14:25:55.285Z,26.50
2018-07-02T14:28:23.542Z,26.50
2018-07-02T14:30:51.857Z,26.50
2018-07-02T14:33:20.030Z,26.40
2018-07-02T14:35:48.221Z,26.40
2018-07-02T14:38:16.405Z,26.40
2018-07-02T14:40:44.566Z,26.40
2018-07-02T14:43:12.742Z,26.40
2018-07-02T14:45:40.929Z,26.40
2018-07-02T14:48:09.117Z,26.40
2018-07-02T14:50:37.296Z,26.50
2018-07-02T14:53:05.453Z,26.40
2018-07-02T14:55:33.602Z,26.40
2018-07-02T14:58:01.766Z,26.40
2018-07-02T15:00:29.926Z,26.40
2018-07-02T15:02:58.112Z,26.40
2018-07-02T15:05:26.310Z,26.40
2018-07-02T15:07:54.438Z,26.40
2018-07-02T15:10:22.597Z,26.40
2018-07-02T15:12:50.761Z,26.40
2018-07-02T15:15:18.945Z,26.40
2018-07-02T15:17:47.114Z,26.40
2018-07-02T15:20:15.299Z,26.40
2018-07-02T15:22:43.454Z,26.40
2018-07-02T15:25:11.628Z,26.40
2018-07-02T15:27:39.785Z,26.40
2018-07-02T15:30:07.962Z,26.40
2018-07-02T15:32:36.122Z,26.40
2018-07-02T15:35:04.323Z,26.40
2018-07-02T15:37:32.476Z,26.30
2018-07-02T15:40:00.753Z,26.30
2018-07-02T15:42:28.939Z,26.30
2018-07-02T15:44:57.134Z,26.30
2018-07-02T15:47:25.302Z,26.30
2018-07-02T15:49:53.477Z,26.30
2018-07-02T15:52:21.625Z,26.20
2018-07-02T15:54:49.946Z,26.20
2018-07-02T15:57:18.218Z,26.20
2018-07-02T15:59:47.439Z,26.20
2018-07-02T16:02:15.743Z,26.20
2018-07-02T16:04:43.948Z,26.20
2018-07-02T16:07:12.170Z,26.20
2018-07-02T16:09:40.403Z,26.10
2018-07-02T16:12:08.646Z,26.10
2018-07-02T16:14:36.841Z,26.10
2018-07-02T16:17:05.057Z,26.10
2018-07-02T16:19:33.304Z,26.10
2018-07-02T16:22:01.542Z,26.10
2018-07-02T16:24:29.720Z,26.10
2018-07-02T16:26:58.051Z,26.10
2018-07-02T16:29:26.235Z,26.10
2018-07-02T16:31:54.402Z,26.10
2018-07-02T16:34:22.582Z,26.10
2018-07-02T16:36:50.827Z,26.00
2018-07-02T16:39:18.987Z,26.00
2018-07-02T16:41:47.141Z,26.00
2018-07-02T16:44:15.408Z,25.90
2018-07-02T16:46:43.643Z,25.90
2018-07-02T16:49:11.785Z,25.90
2018-07-02T16:51:39.967Z,25.90
2018-07-02T16:54:08.193Z,25.90
2018-07-02T16:56:36.536Z,25.90
2018-07-02T16:59:05.317Z,25.90
2018-07-02T17:01:33.555Z,25.80
2018-07-02T17:04:01.771Z,25.80
2018-07-02T17:06:30.026Z,25.70
2018-07-02T17:08:58.501Z,25.60
2018-07-02T17:11:26.700Z,25.60
2018-07-02T17:13:54.936Z,25.60
2018-07-02T17:16:23.391Z,25.50
2018-07-02T17:18:51.652Z,25.50
2018-07-02T17:21:19.942Z,25.40
2018-07-02T17:23:48.178Z,25.40
2018-07-02T17:26:16.419Z,25.40
2018-07-02T17:28:44.628Z,25.40
2018-07-02T17:31:12.894Z,25.30
2018-07-02T17:33:41.178Z,25.30
2018-07-02T17:36:09.350Z,25.30
2018-07-02T17:38:37.542Z,25.20
2018-07-02T17:41:05.745Z,25.20
2018-07-02T17:43:33.909Z,25.20
2018-07-02T17:46:02.202Z,25.20
2018-07-02T17:48:30.397Z,25.10
2018-07-02T17:50:58.559Z,25.10
2018-07-02T17:53:26.742Z,25.10
2018-07-02T17:55:54.931Z,25.10
2018-07-02T17:58:23.108Z,25.10
2018-07-02T18:00:51.266Z,25.00
2018-07-02T18:03:19.432Z,25.00
2018-07-02T18:05:47.677Z,25.00
2018-07-02T18:08:15.841Z,25.00
2018-07-02T18:10:44.042Z,25.00
2018-07-02T18:13:12.176Z,25.00
2018-07-02T18:15:42.518Z,25.00
2018-07-02T18:18:10.694Z,25.00
2018-07-02T18:20:38.927Z,24.90
2018-07-02T18:23:07.289Z,24.90
2018-07-02T18:25:35.447Z,24.90
2018-07-02T18:28:03.664Z,24.90
2018-07-02T18:30:31.941Z,24.90
2018-07-02T18:33:00.106Z,24.80
2018-07-02T18:35:28.301Z,24.80
2018-07-02T18:37:56.526Z,24.80
2018-07-02T18:40:24.626Z,24.70
2018-07-02T18:42:52.825Z,24.70
2018-07-02T18:45:20.954Z,24.70
2018-07-02T18:47:49.117Z,24.70
2018-07-02T18:50:17.321Z,24.70
2018-07-02T18:52:45.569Z,24.70
2018-07-02T18:55:13.737Z,24.70
2018-07-02T18:57:41.905Z,24.60
2018-07-02T19:00:10.083Z,24.70
2018-07-02T19:02:38.262Z,24.60
2018-07-02T19:05:06.506Z,24.60
2018-07-02T19:07:34.668Z,24.50
2018-07-02T19:10:02.921Z,24.50
2018-07-02T19:12:31.083Z,24.50
2018-07-02T19:14:59.449Z,24.50
2018-07-02T19:17:27.642Z,24.40
2018-07-02T19:19:55.821Z,24.40
2018-07-02T19:22:24.136Z,24.30
2018-07-02T19:24:52.318Z,24.30
2018-07-02T19:27:20.481Z,24.20
2018-07-02T19:29:48.682Z,24.20
2018-07-02T19:32:16.817Z,24.20
2018-07-02T19:34:44.998Z,24.10
2018-07-02T19:37:13.149Z,24.10
2018-07-02T19:39:41.321Z,24.10
2018-07-02T19:42:09.478Z,24.00
2018-07-02T19:44:37.670Z,24.00
2018-07-02T19:47:06.060Z,23.90
2018-07-02T19:49:34.242Z,23.90
2018-07-02T19:52:02.381Z,23.80
2018-07-02T19:54:30.573Z,23.70
2018-07-02T19:56:58.737Z,23.70
2018-07-02T19:59:26.964Z,23.60
2018-07-02T20:01:55.126Z,23.60
2018-07-02T20:04:23.270Z,23.50
2018-07-02T20:06:51.537Z,23.50
2018-07-02T20:09:19.603Z,23.40
2018-07-02T20:11:47.822Z,23.40
2018-07-02T20:14:15.968Z,23.30
2018-07-02T20:16:44.535Z,23.20
2018-07-02T20:19:12.721Z,23.20
2018-07-02T20:21:40.872Z,23.10
2018-07-02T20:24:09.043Z,23.00
2018-07-02T20:26:37.221Z,23.00
2018-07-02T20:29:05.368Z,22.90
2018-07-02T20:31:33.595Z,22.80
2018-07-02T20:34:01.743Z,22.80
2018-07-02T20:36:29.933Z,22.70
2018-07-02T20:38:58.181Z,22.60
2018-07-02T20:41:26.380Z,22.60
2018-07-02T20:43:54.553Z,22.50
2018-07-02T20:46:22.709Z,22.50
2018-07-02T20:48:50.892Z,22.40
2018-07-02T20:51:19.242Z,22.40
2018-07-02T20:53:47.412Z,22.30
2018-07-02T20:56:15.592Z,22.20
2018-07-02T20:58:43.725Z,22.20
2018-07-02T21:01:11.883Z,22.20
2018-07-02T21:03:40.038Z,22.10
2018-07-02T21:06:08.223Z,22.10
2018-07-02T21:08:36.398Z,22.00
2018-07-02T21:11:04.554Z,22.00
2018-07-02T21:13:32.724Z,21.90
2018-07-02T21:16:00.937Z,21.90
2018-07-02T21:18:29.040Z,21.80
2018-07-02T21:20:57.186Z,21.80
2018-07-02T21:23:25.345Z,21.70
2018-07-02T21:25:53.504Z,21.70
2018-07-02T21:28:21.701Z,21.60
2018-07-02T21:30:49.847Z,21.60
2018-07-02T21:33:18.061Z,21.60
2018-07-02T21:38:14.129Z,21.50
2018-07-02T21:40:42.295Z,21.50
2018-07-02T21:43:10.463Z,21.50
2018-07-02T21:45:38.610Z,21.40
2018-07-02T21:48:06.758Z,21.40
2018-07-02T21:50:34.909Z,21.40
2018-07-02T21:53:03.063Z,21.40
2018-07-02T21:55:31.203Z,21.40
2018-07-02T21:57:59.377Z,21.30
2018-07-02T22:00:27.531Z,21.30
2018-07-02T22:02:55.685Z,21.30
2018-07-02T22:05:23.966Z,21.20
2018-07-02T22:07:52.065Z,21.20
2018-07-02T22:10:20.212Z,21.20
2018-07-02T22:12:48.375Z,21.20
2018-07-02T22:15:16.555Z,21.20
2018-07-02T22:17:44.781Z,21.10
2018-07-02T22:20:12.948Z,21.10
2018-07-02T22:22:41.101Z,21.10
2018-07-02T22:25:09.270Z,21.10
2018-07-02T22:27:37.414Z,21.00
2018-07-02T22:30:05.595Z,21.00
2018-07-02T22:32:33.772Z,20.90
2018-07-02T22:35:01.946Z,20.90
2018-07-02T22:37:30.098Z,20.80
2018-07-02T22:39:58.261Z,20.80
2018-07-02T22:42:26.530Z,20.80
2018-07-02T22:44:54.698Z,20.70
2018-07-02T22:47:22.876Z,20.70
2018-07-02T22:49:51.043Z,20.70
2018-07-02T22:52:19.191Z,20.70
2018-07-02T22:54:47.416Z,20.60
2018-07-02T22:57:15.799Z,20.60
2018-07-02T22:59:43.966Z,20.60
2018-07-02T23:02:12.137Z,20.50
2018-07-02T23:04:40.281Z,20.50
2018-07-02T23:07:08.462Z,20.40
2018-07-02T23:09:36.632Z,20.40
2018-07-02T23:12:04.985Z,20.40
2018-07-02T23:14:33.150Z,20.40
2018-07-02T23:17:01.329Z,20.30
2018-07-02T23:19:29.487Z,20.30
2018-07-02T23:21:57.657Z,20.20
2018-07-02T23:24:25.810Z,20.20
2018-07-02T23:26:54.073Z,20.10
2018-07-02T23:29:22.253Z,20.10
2018-07-02T23:31:50.439Z,20.10
2018-07-02T23:34:18.597Z,20.00
2018-07-02T23:36:46.843Z,20.00
2018-07-02T23:39:14.989Z,20.00
2018-07-02T23:41:44.211Z,19.90
2018-07-02T23:44:12.359Z,19.90
2018-07-02T23:46:40.522Z,19.90
2018-07-02T23:49:08.683Z,19.80
2018-07-02T23:51:36.909Z,19.80
2018-07-02T23:54:05.181Z,19.80
2018-07-02T23:56:33.479Z,19.80
2018-07-02T23:59:01.617Z,19.70
